sensor_id;sensor_type;location;lat;lon;timestamp;P1;durP1;ratioP1;P2;durP2;ratioP2
56670;SDS011;42545;50.054;8.306;2022-09-09T00:02:10;2.47;;;1.15;;
56670;SDS011;42545;50.054;8.306;2022-09-09T00:04:44;1.30;;;1.10;;
56670;SDS011;42545;50.054;8.306;2022-09-09T00:07:21;0.80;;;0.65;;
56670;SDS011;42545;50.054;8.306;2022-09-09T00:10:03;0.98;;;0.95;;
56670;SDS011;42545;50.054;8.306;2022-09-09T00:12:42;0.77;;;0.77;;
56670;SDS011;42545;50.054;8.306;2022-09-09T00:17:51;0.65;;;0.65;;
56670;SDS011;42545;50.054;8.306;2022-09-09T00:20:24;1.10;;;1.00;;
56670;SDS011;42545;50.054;8.306;2022-09-09T00:22:57;0.90;;;0.90;;
56670;SDS011;42545;50.054;8.306;2022-09-09T00:25:32;0.80;;;0.70;;
56670;SDS011;42545;50.054;8.306;2022-09-09T00:28:07;0.80;;;0.80;;
56670;SDS011;42545;50.054;8.306;2022-09-09T00:30:44;0.82;;;0.80;;
56670;SDS011;42545;50.054;8.306;2022-09-09T00:33:12;1.13;;;1.00;;
56670;SDS011;42545;50.054;8.306;2022-09-09T00:35:42;2.73;;;1.27;;
56670;SDS011;42545;50.054;8.306;2022-09-09T00:40:41;1.13;;;1.02;;
56670;SDS011;42545;50.054;8.306;2022-09-09T00:43:25;1.02;;;0.88;;
56670;SDS011;42545;50.054;8.306;2022-09-09T00:46:03;1.15;;;0.95;;
56670;SDS011;42545;50.054;8.306;2022-09-09T00:48:43;0.70;;;0.70;;
56670;SDS011;42545;50.054;8.306;2022-09-09T00:51:17;1.00;;;1.00;;
56670;SDS011;42545;50.054;8.306;2022-09-09T00:54:01;0.77;;;0.70;;
56670;SDS011;42545;50.054;8.306;2022-09-09T00:56:42;1.15;;;1.05;;
56670;SDS011;42545;50.054;8.306;2022-09-09T00:59:26;1.55;;;1.00;;
56670;SDS011;42545;50.054;8.306;2022-09-09T01:02:01;2.55;;;1.13;;
56670;SDS011;42545;50.054;8.306;2022-09-09T01:04:35;1.10;;;0.90;;
56670;SDS011;42545;50.054;8.306;2022-09-09T01:07:04;0.90;;;0.90;;
56670;SDS011;42545;50.054;8.306;2022-09-09T01:09:42;1.35;;;0.90;;
56670;SDS011;42545;50.054;8.306;2022-09-09T01:12:23;0.90;;;0.90;;
56670;SDS011;42545;50.054;8.306;2022-09-09T01:14:56;0.88;;;0.82;;
56670;SDS011;42545;50.054;8.306;2022-09-09T01:17:28;1.02;;;1.00;;
56670;SDS011;42545;50.054;8.306;2022-09-09T01:22:33;1.77;;;1.00;;
56670;SDS011;42545;50.054;8.306;2022-09-09T01:25:09;0.88;;;0.85;;
56670;SDS011;42545;50.054;8.306;2022-09-09T01:28:27;2.13;;;1.10;;
56670;SDS011;42545;50.054;8.306;2022-09-09T01:30:54;1.00;;;0.95;;
56670;SDS011;42545;50.054;8.306;2022-09-09T01:33:23;1.10;;;0.80;;
56670;SDS011;42545;50.054;8.306;2022-09-09T01:35:52;0.80;;;0.80;;
56670;SDS011;42545;50.054;8.306;2022-09-09T01:38:25;0.82;;;0.80;;
56670;SDS011;42545;50.054;8.306;2022-09-09T01:40:56;0.70;;;0.70;;
56670;SDS011;42545;50.054;8.306;2022-09-09T01:43:23;0.70;;;0.70;;
56670;SDS011;42545;50.054;8.306;2022-09-09T01:45:52;1.15;;;0.82;;
56670;SDS011;42545;50.054;8.306;2022-09-09T01:48:21;0.80;;;0.80;;
56670;SDS011;42545;50.054;8.306;2022-09-09T01:50:51;0.98;;;0.98;;
56670;SDS011;42545;50.054;8.306;2022-09-09T01:53:18;0.80;;;0.80;;
56670;SDS011;42545;50.054;8.306;2022-09-09T01:55:48;1.00;;;0.80;;
56670;SDS011;42545;50.054;8.306;2022-09-09T01:58:29;0.63;;;0.63;;
56670;SDS011;42545;50.054;8.306;2022-09-09T02:01:06;0.73;;;0.73;;
56670;SDS011;42545;50.054;8.306;2022-09-09T02:03:40;0.60;;;0.60;;
56670;SDS011;42545;50.054;8.306;2022-09-09T02:06:14;0.73;;;0.73;;
56670;SDS011;42545;50.054;8.306;2022-09-09T02:08:49;0.82;;;0.80;;
56670;SDS011;42545;50.054;8.306;2022-09-09T02:11:20;0.80;;;0.80;;
56670;SDS011;42545;50.054;8.306;2022-09-09T02:13:50;0.60;;;0.60;;
56670;SDS011;42545;50.054;8.306;2022-09-09T02:16:21;0.77;;;0.77;;
56670;SDS011;42545;50.054;8.306;2022-09-09T02:18:54;0.52;;;0.52;;
56670;SDS011;42545;50.054;8.306;2022-09-09T02:21:24;0.88;;;0.70;;
56670;SDS011;42545;50.054;8.306;2022-09-09T02:23:55;0.60;;;0.60;;
56670;SDS011;42545;50.054;8.306;2022-09-09T02:26:27;0.73;;;0.55;;
56670;SDS011;42545;50.054;8.306;2022-09-09T02:28:55;0.60;;;0.60;;
56670;SDS011;42545;50.054;8.306;2022-09-09T02:31:25;0.70;;;0.70;;
56670;SDS011;42545;50.054;8.306;2022-09-09T02:33:53;0.82;;;0.82;;
56670;SDS011;42545;50.054;8.306;2022-09-09T02:36:24;1.30;;;1.20;;
56670;SDS011;42545;50.054;8.306;2022-09-09T02:38:54;1.67;;;1.30;;
56670;SDS011;42545;50.054;8.306;2022-09-09T02:41:23;2.83;;;1.40;;
56670;SDS011;42545;50.054;8.306;2022-09-09T02:43:56;2.33;;;1.60;;
56670;SDS011;42545;50.054;8.306;2022-09-09T02:46:27;1.80;;;1.70;;
56670;SDS011;42545;50.054;8.306;2022-09-09T02:49:06;2.35;;;1.38;;
56670;SDS011;42545;50.054;8.306;2022-09-09T02:51:38;2.88;;;1.90;;
56670;SDS011;42545;50.054;8.306;2022-09-09T02:54:10;2.72;;;1.63;;
56670;SDS011;42545;50.054;8.306;2022-09-09T02:56:44;1.98;;;1.60;;
56670;SDS011;42545;50.054;8.306;2022-09-09T02:59:17;1.80;;;1.30;;
56670;SDS011;42545;50.054;8.306;2022-09-09T03:01:45;1.38;;;1.27;;
56670;SDS011;42545;50.054;8.306;2022-09-09T03:04:12;1.30;;;1.20;;
56670;SDS011;42545;50.054;8.306;2022-09-09T03:06:39;1.52;;;1.30;;
56670;SDS011;42545;50.054;8.306;2022-09-09T03:09:06;2.47;;;1.23;;
56670;SDS011;42545;50.054;8.306;2022-09-09T03:11:35;1.50;;;1.40;;
56670;SDS011;42545;50.054;8.306;2022-09-09T03:14:03;1.33;;;1.23;;
56670;SDS011;42545;50.054;8.306;2022-09-09T03:16:32;3.00;;;1.23;;
56670;SDS011;42545;50.054;8.306;2022-09-09T03:18:59;1.75;;;1.20;;
56670;SDS011;42545;50.054;8.306;2022-09-09T03:21:26;2.30;;;1.58;;
56670;SDS011;42545;50.054;8.306;2022-09-09T03:23:53;2.25;;;1.30;;
56670;SDS011;42545;50.054;8.306;2022-09-09T03:26:20;1.48;;;1.20;;
56670;SDS011;42545;50.054;8.306;2022-09-09T03:28:48;1.83;;;1.38;;
56670;SDS011;42545;50.054;8.306;2022-09-09T03:31:14;1.05;;;1.02;;
56670;SDS011;42545;50.054;8.306;2022-09-09T03:33:43;0.90;;;0.90;;
56670;SDS011;42545;50.054;8.306;2022-09-09T03:36:10;1.10;;;1.00;;
56670;SDS011;42545;50.054;8.306;2022-09-09T03:38:37;1.10;;;1.00;;
56670;SDS011;42545;50.054;8.306;2022-09-09T03:41:04;1.35;;;1.25;;
56670;SDS011;42545;50.054;8.306;2022-09-09T03:43:33;1.10;;;1.00;;
56670;SDS011;42545;50.054;8.306;2022-09-09T03:46:00;1.80;;;1.15;;
56670;SDS011;42545;50.054;8.306;2022-09-09T03:48:27;1.25;;;1.10;;
56670;SDS011;42545;50.054;8.306;2022-09-09T03:50:55;1.08;;;0.95;;
56670;SDS011;42545;50.054;8.306;2022-09-09T03:53:23;2.42;;;1.30;;
56670;SDS011;42545;50.054;8.306;2022-09-09T03:55:52;1.10;;;1.00;;
56670;SDS011;42545;50.054;8.306;2022-09-09T03:58:20;1.00;;;0.90;;
56670;SDS011;42545;50.054;8.306;2022-09-09T04:00:54;0.70;;;0.70;;
56670;SDS011;42545;50.054;8.306;2022-09-09T04:03:22;1.25;;;0.90;;
56670;SDS011;42545;50.054;8.306;2022-09-09T04:05:50;1.92;;;1.00;;
56670;SDS011;42545;50.054;8.306;2022-09-09T04:08:19;1.58;;;1.02;;
56670;SDS011;42545;50.054;8.306;2022-09-09T04:10:47;1.15;;;1.00;;
56670;SDS011;42545;50.054;8.306;2022-09-09T04:13:16;1.10;;;1.00;;
56670;SDS011;42545;50.054;8.306;2022-09-09T04:15:48;1.15;;;1.00;;
56670;SDS011;42545;50.054;8.306;2022-09-09T04:18:17;1.75;;;0.90;;
56670;SDS011;42545;50.054;8.306;2022-09-09T04:20:45;0.90;;;0.90;;
56670;SDS011;42545;50.054;8.306;2022-09-09T04:23:12;0.93;;;0.77;;
56670;SDS011;42545;50.054;8.306;2022-09-09T04:25:43;1.15;;;0.80;;
56670;SDS011;42545;50.054;8.306;2022-09-09T04:28:11;0.80;;;0.80;;
56670;SDS011;42545;50.054;8.306;2022-09-09T04:30:38;0.80;;;0.80;;
56670;SDS011;42545;50.054;8.306;2022-09-09T04:33:06;0.70;;;0.70;;
56670;SDS011;42545;50.054;8.306;2022-09-09T04:35:33;0.80;;;0.77;;
56670;SDS011;42545;50.054;8.306;2022-09-09T04:38:00;0.70;;;0.70;;
56670;SDS011;42545;50.054;8.306;2022-09-09T04:40:28;0.80;;;0.80;;
56670;SDS011;42545;50.054;8.306;2022-09-09T04:42:58;0.73;;;0.73;;
56670;SDS011;42545;50.054;8.306;2022-09-09T04:45:25;1.05;;;0.80;;
56670;SDS011;42545;50.054;8.306;2022-09-09T04:47:52;0.90;;;0.88;;
56670;SDS011;42545;50.054;8.306;2022-09-09T04:50:20;0.80;;;0.80;;
56670;SDS011;42545;50.054;8.306;2022-09-09T04:52:47;1.65;;;0.90;;
56670;SDS011;42545;50.054;8.306;2022-09-09T04:55:14;0.77;;;0.73;;
56670;SDS011;42545;50.054;8.306;2022-09-09T04:57:41;0.80;;;0.80;;
56670;SDS011;42545;50.054;8.306;2022-09-09T05:00:10;0.80;;;0.80;;
56670;SDS011;42545;50.054;8.306;2022-09-09T05:05:07;0.70;;;0.70;;
56670;SDS011;42545;50.054;8.306;2022-09-09T05:07:36;0.75;;;0.73;;
56670;SDS011;42545;50.054;8.306;2022-09-09T05:10:03;1.23;;;0.90;;
56670;SDS011;42545;50.054;8.306;2022-09-09T05:12:31;0.88;;;0.88;;
56670;SDS011;42545;50.054;8.306;2022-09-09T05:15:00;1.05;;;0.95;;
56670;SDS011;42545;50.054;8.306;2022-09-09T05:17:29;0.95;;;0.93;;
56670;SDS011;42545;50.054;8.306;2022-09-09T05:19:55;0.80;;;0.80;;
56670;SDS011;42545;50.054;8.306;2022-09-09T05:22:22;1.00;;;0.90;;
56670;SDS011;42545;50.054;8.306;2022-09-09T05:24:49;0.85;;;0.82;;
56670;SDS011;42545;50.054;8.306;2022-09-09T05:27:17;0.70;;;0.70;;
56670;SDS011;42545;50.054;8.306;2022-09-09T05:29:44;0.70;;;0.70;;
56670;SDS011;42545;50.054;8.306;2022-09-09T05:32:11;0.98;;;0.88;;
56670;SDS011;42545;50.054;8.306;2022-09-09T05:34:40;0.63;;;0.63;;
56670;SDS011;42545;50.054;8.306;2022-09-09T05:37:07;1.00;;;0.80;;
56670;SDS011;42545;50.054;8.306;2022-09-09T05:39:34;1.38;;;1.00;;
56670;SDS011;42545;50.054;8.306;2022-09-09T05:42:02;0.80;;;0.80;;
56670;SDS011;42545;50.054;8.306;2022-09-09T05:44:29;1.63;;;1.27;;
56670;SDS011;42545;50.054;8.306;2022-09-09T05:46:56;1.55;;;1.30;;
56670;SDS011;42545;50.054;8.306;2022-09-09T05:49:23;1.20;;;1.10;;
56670;SDS011;42545;50.054;8.306;2022-09-09T05:51:52;1.10;;;1.00;;
56670;SDS011;42545;50.054;8.306;2022-09-09T05:54:19;2.00;;;1.00;;
56670;SDS011;42545;50.054;8.306;2022-09-09T05:56:46;1.30;;;1.00;;
56670;SDS011;42545;50.054;8.306;2022-09-09T05:59:17;0.90;;;0.90;;
56670;SDS011;42545;50.054;8.306;2022-09-09T06:01:44;1.00;;;0.90;;
56670;SDS011;42545;50.054;8.306;2022-09-09T06:04:10;0.80;;;0.80;;
56670;SDS011;42545;50.054;8.306;2022-09-09T06:06:38;1.00;;;0.90;;
56670;SDS011;42545;50.054;8.306;2022-09-09T06:09:07;0.90;;;0.90;;
56670;SDS011;42545;50.054;8.306;2022-09-09T06:11:35;1.20;;;1.00;;
56670;SDS011;42545;50.054;8.306;2022-09-09T06:14:03;2.30;;;1.33;;
56670;SDS011;42545;50.054;8.306;2022-09-09T06:16:32;2.75;;;1.23;;
56670;SDS011;42545;50.054;8.306;2022-09-09T06:19:00;1.77;;;1.10;;
56670;SDS011;42545;50.054;8.306;2022-09-09T06:21:28;1.60;;;1.30;;
56670;SDS011;42545;50.054;8.306;2022-09-09T06:23:58;1.75;;;1.02;;
56670;SDS011;42545;50.054;8.306;2022-09-09T06:26:28;1.20;;;0.70;;
56670;SDS011;42545;50.054;8.306;2022-09-09T06:28:57;1.20;;;1.00;;
56670;SDS011;42545;50.054;8.306;2022-09-09T06:31:25;0.93;;;0.88;;
56670;SDS011;42545;50.054;8.306;2022-09-09T06:33:55;0.70;;;0.70;;
56670;SDS011;42545;50.054;8.306;2022-09-09T06:36:24;1.10;;;0.80;;
56670;SDS011;42545;50.054;8.306;2022-09-09T06:38:52;1.48;;;0.93;;
56670;SDS011;42545;50.054;8.306;2022-09-09T06:41:21;1.05;;;0.95;;
56670;SDS011;42545;50.054;8.306;2022-09-09T06:43:52;0.77;;;0.70;;
56670;SDS011;42545;50.054;8.306;2022-09-09T06:46:21;0.80;;;0.80;;
56670;SDS011;42545;50.054;8.306;2022-09-09T06:48:48;0.93;;;0.80;;
56670;SDS011;42545;50.054;8.306;2022-09-09T06:51:16;0.90;;;0.75;;
56670;SDS011;42545;50.054;8.306;2022-09-09T06:53:46;1.08;;;0.98;;
56670;SDS011;42545;50.054;8.306;2022-09-09T06:56:17;1.15;;;0.80;;
56670;SDS011;42545;50.054;8.306;2022-09-09T06:58:48;0.68;;;0.65;;
56670;SDS011;42545;50.054;8.306;2022-09-09T07:01:19;1.30;;;0.80;;
56670;SDS011;42545;50.054;8.306;2022-09-09T07:03:48;0.75;;;0.70;;
56670;SDS011;42545;50.054;8.306;2022-09-09T07:06:17;1.20;;;1.00;;
56670;SDS011;42545;50.054;8.306;2022-09-09T07:08:48;1.02;;;0.90;;
56670;SDS011;42545;50.054;8.306;2022-09-09T07:11:17;1.65;;;0.80;;
56670;SDS011;42545;50.054;8.306;2022-09-09T07:13:45;2.88;;;1.10;;
56670;SDS011;42545;50.054;8.306;2022-09-09T07:16:13;1.92;;;0.98;;
56670;SDS011;42545;50.054;8.306;2022-09-09T07:18:43;1.70;;;1.00;;
56670;SDS011;42545;50.054;8.306;2022-09-09T07:21:10;2.35;;;1.20;;
56670;SDS011;42545;50.054;8.306;2022-09-09T07:23:38;3.13;;;1.60;;
56670;SDS011;42545;50.054;8.306;2022-09-09T07:26:09;3.38;;;2.10;;
56670;SDS011;42545;50.054;8.306;2022-09-09T07:28:39;2.28;;;1.77;;
56670;SDS011;42545;50.054;8.306;2022-09-09T07:31:06;2.88;;;1.60;;
56670;SDS011;42545;50.054;8.306;2022-09-09T07:33:45;5.05;;;1.90;;
56670;SDS011;42545;50.054;8.306;2022-09-09T07:36:14;3.60;;;1.95;;
56670;SDS011;42545;50.054;8.306;2022-09-09T07:38:43;1.50;;;1.13;;
56670;SDS011;42545;50.054;8.306;2022-09-09T07:41:12;2.92;;;1.20;;
56670;SDS011;42545;50.054;8.306;2022-09-09T07:43:41;2.00;;;1.40;;
56670;SDS011;42545;50.054;8.306;2022-09-09T07:46:10;1.90;;;1.30;;
56670;SDS011;42545;50.054;8.306;2022-09-09T07:48:39;4.32;;;1.50;;
56670;SDS011;42545;50.054;8.306;2022-09-09T07:51:12;1.60;;;1.20;;
56670;SDS011;42545;50.054;8.306;2022-09-09T07:53:41;4.15;;;1.80;;
56670;SDS011;42545;50.054;8.306;2022-09-09T07:56:12;2.80;;;1.80;;
56670;SDS011;42545;50.054;8.306;2022-09-09T07:58:42;3.83;;;1.70;;
56670;SDS011;42545;50.054;8.306;2022-09-09T08:01:12;5.40;;;2.67;;
56670;SDS011;42545;50.054;8.306;2022-09-09T08:03:43;8.60;;;3.83;;
56670;SDS011;42545;50.054;8.306;2022-09-09T08:06:13;4.10;;;2.67;;
56670;SDS011;42545;50.054;8.306;2022-09-09T08:08:40;7.68;;;3.47;;
56670;SDS011;42545;50.054;8.306;2022-09-09T08:11:09;8.70;;;3.40;;
56670;SDS011;42545;50.054;8.306;2022-09-09T08:13:38;4.35;;;2.72;;
56670;SDS011;42545;50.054;8.306;2022-09-09T08:16:06;5.13;;;2.80;;
56670;SDS011;42545;50.054;8.306;2022-09-09T08:18:34;8.88;;;3.08;;
56670;SDS011;42545;50.054;8.306;2022-09-09T08:21:09;5.85;;;3.03;;
56670;SDS011;42545;50.054;8.306;2022-09-09T08:23:40;6.93;;;2.78;;
56670;SDS011;42545;50.054;8.306;2022-09-09T08:26:10;5.43;;;2.53;;
56670;SDS011;42545;50.054;8.306;2022-09-09T08:28:40;5.35;;;2.72;;
56670;SDS011;42545;50.054;8.306;2022-09-09T08:31:10;7.15;;;3.30;;
56670;SDS011;42545;50.054;8.306;2022-09-09T08:33:38;11.63;;;3.30;;
56670;SDS011;42545;50.054;8.306;2022-09-09T08:36:06;7.93;;;3.33;;
56670;SDS011;42545;50.054;8.306;2022-09-09T08:38:36;4.50;;;2.70;;
56670;SDS011;42545;50.054;8.306;2022-09-09T08:41:15;6.30;;;2.78;;
56670;SDS011;42545;50.054;8.306;2022-09-09T08:43:59;6.35;;;2.80;;
56670;SDS011;42545;50.054;8.306;2022-09-09T08:46:32;9.15;;;2.60;;
56670;SDS011;42545;50.054;8.306;2022-09-09T08:49:11;8.90;;;2.80;;
56670;SDS011;42545;50.054;8.306;2022-09-09T08:51:46;7.97;;;2.55;;
56670;SDS011;42545;50.054;8.306;2022-09-09T08:54:15;2.72;;;1.98;;
56670;SDS011;42545;50.054;8.306;2022-09-09T08:56:45;9.23;;;2.47;;
56670;SDS011;42545;50.054;8.306;2022-09-09T08:59:12;5.50;;;2.90;;
56670;SDS011;42545;50.054;8.306;2022-09-09T09:04:21;3.55;;;2.05;;
56670;SDS011;42545;50.054;8.306;2022-09-09T09:07:00;5.45;;;2.25;;
56670;SDS011;42545;50.054;8.306;2022-09-09T09:12:14;3.50;;;2.40;;
56670;SDS011;42545;50.054;8.306;2022-09-09T09:14:42;2.25;;;2.00;;
56670;SDS011;42545;50.054;8.306;2022-09-09T09:19:41;5.22;;;2.45;;
56670;SDS011;42545;50.054;8.306;2022-09-09T09:22:10;3.72;;;2.20;;
56670;SDS011;42545;50.054;8.306;2022-09-09T09:24:47;6.30;;;2.55;;
56670;SDS011;42545;50.054;8.306;2022-09-09T09:27:21;5.28;;;2.00;;
56670;SDS011;42545;50.054;8.306;2022-09-09T09:29:54;9.20;;;3.00;;
56670;SDS011;42545;50.054;8.306;2022-09-09T09:32:24;5.65;;;2.05;;
56670;SDS011;42545;50.054;8.306;2022-09-09T09:34:56;6.18;;;2.40;;
56670;SDS011;42545;50.054;8.306;2022-09-09T09:37:26;5.45;;;2.03;;
56670;SDS011;42545;50.054;8.306;2022-09-09T09:40:07;10.75;;;1.90;;
56670;SDS011;42545;50.054;8.306;2022-09-09T09:42:37;4.95;;;2.00;;
56670;SDS011;42545;50.054;8.306;2022-09-09T09:45:14;3.92;;;1.73;;
56670;SDS011;42545;50.054;8.306;2022-09-09T09:47:46;2.63;;;1.33;;
56670;SDS011;42545;50.054;8.306;2022-09-09T09:50:24;3.95;;;1.75;;
56670;SDS011;42545;50.054;8.306;2022-09-09T09:52:54;4.15;;;1.88;;
56670;SDS011;42545;50.054;8.306;2022-09-09T09:55:23;3.50;;;1.80;;
56670;SDS011;42545;50.054;8.306;2022-09-09T09:57:53;4.85;;;1.67;;
56670;SDS011;42545;50.054;8.306;2022-09-09T10:00:20;4.30;;;1.83;;
56670;SDS011;42545;50.054;8.306;2022-09-09T10:02:49;2.20;;;1.48;;
56670;SDS011;42545;50.054;8.306;2022-09-09T10:05:18;2.38;;;1.58;;
56670;SDS011;42545;50.054;8.306;2022-09-09T10:08:03;2.95;;;1.50;;
56670;SDS011;42545;50.054;8.306;2022-09-09T10:10:46;7.20;;;2.22;;
56670;SDS011;42545;50.054;8.306;2022-09-09T10:13:26;6.25;;;1.80;;
56670;SDS011;42545;50.054;8.306;2022-09-09T10:16:02;6.45;;;1.80;;
56670;SDS011;42545;50.054;8.306;2022-09-09T10:18:40;4.65;;;1.63;;
56670;SDS011;42545;50.054;8.306;2022-09-09T10:21:19;4.05;;;1.55;;
56670;SDS011;42545;50.054;8.306;2022-09-09T10:23:59;2.58;;;1.40;;
56670;SDS011;42545;50.054;8.306;2022-09-09T10:26:43;6.63;;;1.98;;
56670;SDS011;42545;50.054;8.306;2022-09-09T10:29:20;5.03;;;1.65;;
56670;SDS011;42545;50.054;8.306;2022-09-09T10:32:02;3.95;;;1.55;;
56670;SDS011;42545;50.054;8.306;2022-09-09T10:34:46;3.92;;;1.27;;
56670;SDS011;42545;50.054;8.306;2022-09-09T10:37:25;4.32;;;1.10;;
56670;SDS011;42545;50.054;8.306;2022-09-09T10:40:11;3.70;;;1.27;;
56670;SDS011;42545;50.054;8.306;2022-09-09T10:42:51;4.35;;;1.30;;
56670;SDS011;42545;50.054;8.306;2022-09-09T10:45:23;2.87;;;1.20;;
56670;SDS011;42545;50.054;8.306;2022-09-09T10:48:05;3.72;;;1.40;;
56670;SDS011;42545;50.054;8.306;2022-09-09T10:50:49;3.33;;;1.15;;
56670;SDS011;42545;50.054;8.306;2022-09-09T10:53:24;4.35;;;1.45;;
56670;SDS011;42545;50.054;8.306;2022-09-09T10:56:05;5.10;;;1.10;;
56670;SDS011;42545;50.054;8.306;2022-09-09T10:58:36;6.43;;;1.20;;
56670;SDS011;42545;50.054;8.306;2022-09-09T11:01:12;4.55;;;1.15;;
56670;SDS011;42545;50.054;8.306;2022-09-09T11:03:42;2.88;;;0.82;;
56670;SDS011;42545;50.054;8.306;2022-09-09T11:08:40;4.07;;;1.05;;
56670;SDS011;42545;50.054;8.306;2022-09-09T11:11:09;4.25;;;1.10;;
56670;SDS011;42545;50.054;8.306;2022-09-09T11:13:42;2.85;;;1.10;;
56670;SDS011;42545;50.054;8.306;2022-09-09T11:16:21;3.08;;;1.00;;
56670;SDS011;42545;50.054;8.306;2022-09-09T11:18:54;4.32;;;1.10;;
56670;SDS011;42545;50.054;8.306;2022-09-09T11:21:27;5.47;;;1.35;;
56670;SDS011;42545;50.054;8.306;2022-09-09T11:23:57;5.30;;;1.35;;
56670;SDS011;42545;50.054;8.306;2022-09-09T11:26:30;4.38;;;1.35;;
56670;SDS011;42545;50.054;8.306;2022-09-09T11:29:13;6.22;;;1.58;;
56670;SDS011;42545;50.054;8.306;2022-09-09T11:32:07;3.17;;;1.25;;
56670;SDS011;42545;50.054;8.306;2022-09-09T11:34:50;4.68;;;1.20;;
56670;SDS011;42545;50.054;8.306;2022-09-09T11:37:31;2.75;;;1.10;;
56670;SDS011;42545;50.054;8.306;2022-09-09T11:40:15;4.35;;;1.33;;
56670;SDS011;42545;50.054;8.306;2022-09-09T11:42:45;5.68;;;1.50;;
56670;SDS011;42545;50.054;8.306;2022-09-09T11:45:21;4.05;;;1.40;;
56670;SDS011;42545;50.054;8.306;2022-09-09T11:47:55;4.15;;;1.20;;
56670;SDS011;42545;50.054;8.306;2022-09-09T11:50:27;5.80;;;1.20;;
56670;SDS011;42545;50.054;8.306;2022-09-09T11:53:05;4.22;;;0.98;;
56670;SDS011;42545;50.054;8.306;2022-09-09T11:55:46;5.68;;;1.45;;
56670;SDS011;42545;50.054;8.306;2022-09-09T11:58:15;4.55;;;1.50;;
56670;SDS011;42545;50.054;8.306;2022-09-09T12:00:46;3.53;;;1.17;;
56670;SDS011;42545;50.054;8.306;2022-09-09T12:06:09;4.35;;;1.20;;
56670;SDS011;42545;50.054;8.306;2022-09-09T12:08:44;4.28;;;1.15;;
56670;SDS011;42545;50.054;8.306;2022-09-09T12:11:23;4.65;;;1.60;;
56670;SDS011;42545;50.054;8.306;2022-09-09T12:13:52;3.92;;;1.27;;
56670;SDS011;42545;50.054;8.306;2022-09-09T12:16:28;3.33;;;1.02;;
56670;SDS011;42545;50.054;8.306;2022-09-09T12:19:05;4.10;;;1.30;;
56670;SDS011;42545;50.054;8.306;2022-09-09T12:21:44;3.97;;;1.58;;
56670;SDS011;42545;50.054;8.306;2022-09-09T12:24:19;4.10;;;1.40;;
56670;SDS011;42545;50.054;8.306;2022-09-09T12:26:56;2.35;;;1.13;;
56670;SDS011;42545;50.054;8.306;2022-09-09T12:29:33;5.75;;;1.30;;
56670;SDS011;42545;50.054;8.306;2022-09-09T12:32:09;4.78;;;1.13;;
56670;SDS011;42545;50.054;8.306;2022-09-09T12:34:40;2.83;;;1.13;;
56670;SDS011;42545;50.054;8.306;2022-09-09T12:37:12;2.50;;;1.00;;
56670;SDS011;42545;50.054;8.306;2022-09-09T12:39:45;3.53;;;1.02;;
56670;SDS011;42545;50.054;8.306;2022-09-09T12:42:18;8.38;;;1.50;;
56670;SDS011;42545;50.054;8.306;2022-09-09T12:44:52;3.28;;;1.08;;
56670;SDS011;42545;50.054;8.306;2022-09-09T12:47:21;4.43;;;1.00;;
56670;SDS011;42545;50.054;8.306;2022-09-09T12:49:57;6.30;;;1.17;;
56670;SDS011;42545;50.054;8.306;2022-09-09T12:52:27;3.00;;;1.02;;
56670;SDS011;42545;50.054;8.306;2022-09-09T12:54:58;2.60;;;0.93;;
56670;SDS011;42545;50.054;8.306;2022-09-09T12:57:29;3.17;;;1.20;;
56670;SDS011;42545;50.054;8.306;2022-09-09T13:00:05;5.47;;;0.98;;
56670;SDS011;42545;50.054;8.306;2022-09-09T13:02:36;3.03;;;1.00;;
56670;SDS011;42545;50.054;8.306;2022-09-09T13:05:15;2.70;;;1.00;;
56670;SDS011;42545;50.054;8.306;2022-09-09T13:07:45;8.30;;;1.42;;
56670;SDS011;42545;50.054;8.306;2022-09-09T13:10:12;2.65;;;0.90;;
56670;SDS011;42545;50.054;8.306;2022-09-09T13:12:40;4.38;;;1.20;;
56670;SDS011;42545;50.054;8.306;2022-09-09T13:15:11;2.78;;;0.90;;
56670;SDS011;42545;50.054;8.306;2022-09-09T13:17:51;2.42;;;0.77;;
56670;SDS011;42545;50.054;8.306;2022-09-09T13:20:22;3.15;;;1.00;;
56670;SDS011;42545;50.054;8.306;2022-09-09T13:22:51;4.15;;;1.52;;
56670;SDS011;42545;50.054;8.306;2022-09-09T13:25:23;4.90;;;1.20;;
56670;SDS011;42545;50.054;8.306;2022-09-09T13:27:53;3.60;;;1.20;;
56670;SDS011;42545;50.054;8.306;2022-09-09T13:30:27;2.22;;;0.80;;
56670;SDS011;42545;50.054;8.306;2022-09-09T13:33:01;2.47;;;1.10;;
56670;SDS011;42545;50.054;8.306;2022-09-09T13:35:50;4.00;;;1.45;;
56670;SDS011;42545;50.054;8.306;2022-09-09T13:38:19;1.98;;;0.85;;
56670;SDS011;42545;50.054;8.306;2022-09-09T13:40:53;4.70;;;1.02;;
56670;SDS011;42545;50.054;8.306;2022-09-09T13:43:22;2.30;;;0.80;;
56670;SDS011;42545;50.054;8.306;2022-09-09T13:45:54;3.13;;;1.00;;
56670;SDS011;42545;50.054;8.306;2022-09-09T13:48:23;2.55;;;1.42;;
56670;SDS011;42545;50.054;8.306;2022-09-09T13:50:55;1.52;;;0.80;;
56670;SDS011;42545;50.054;8.306;2022-09-09T13:53:25;1.95;;;0.75;;
56670;SDS011;42545;50.054;8.306;2022-09-09T13:55:53;3.38;;;1.00;;
56670;SDS011;42545;50.054;8.306;2022-09-09T13:58:22;4.43;;;0.90;;
56670;SDS011;42545;50.054;8.306;2022-09-09T14:00:50;1.55;;;0.88;;
56670;SDS011;42545;50.054;8.306;2022-09-09T14:03:18;4.70;;;1.00;;
56670;SDS011;42545;50.054;8.306;2022-09-09T14:05:46;1.80;;;0.90;;
56670;SDS011;42545;50.054;8.306;2022-09-09T14:08:22;2.55;;;0.80;;
56670;SDS011;42545;50.054;8.306;2022-09-09T14:10:51;2.92;;;1.00;;
56670;SDS011;42545;50.054;8.306;2022-09-09T14:13:20;3.17;;;0.95;;
56670;SDS011;42545;50.054;8.306;2022-09-09T14:15:48;2.55;;;0.80;;
56670;SDS011;42545;50.054;8.306;2022-09-09T14:18:17;5.45;;;1.17;;
56670;SDS011;42545;50.054;8.306;2022-09-09T14:20:44;3.55;;;0.95;;
56670;SDS011;42545;50.054;8.306;2022-09-09T14:23:11;5.70;;;1.00;;
56670;SDS011;42545;50.054;8.306;2022-09-09T14:25:41;2.55;;;0.82;;
56670;SDS011;42545;50.054;8.306;2022-09-09T14:28:09;3.40;;;0.87;;
56670;SDS011;42545;50.054;8.306;2022-09-09T14:30:37;2.53;;;0.90;;
56670;SDS011;42545;50.054;8.306;2022-09-09T14:33:07;1.30;;;0.80;;
56670;SDS011;42545;50.054;8.306;2022-09-09T14:35:36;2.83;;;1.05;;
56670;SDS011;42545;50.054;8.306;2022-09-09T14:38:03;2.83;;;1.00;;
56670;SDS011;42545;50.054;8.306;2022-09-09T14:40:31;2.67;;;0.80;;
56670;SDS011;42545;50.054;8.306;2022-09-09T14:43:00;2.72;;;1.00;;
56670;SDS011;42545;50.054;8.306;2022-09-09T14:45:27;1.30;;;0.80;;
56670;SDS011;42545;50.054;8.306;2022-09-09T14:47:54;2.40;;;1.00;;
56670;SDS011;42545;50.054;8.306;2022-09-09T14:50:22;7.03;;;1.42;;
56670;SDS011;42545;50.054;8.306;2022-09-09T14:52:50;4.20;;;1.20;;
56670;SDS011;42545;50.054;8.306;2022-09-09T14:55:16;4.18;;;1.10;;
56670;SDS011;42545;50.054;8.306;2022-09-09T14:57:45;3.50;;;1.00;;
56670;SDS011;42545;50.054;8.306;2022-09-09T15:00:13;3.90;;;1.02;;
56670;SDS011;42545;50.054;8.306;2022-09-09T15:02:41;2.80;;;0.95;;
56670;SDS011;42545;50.054;8.306;2022-09-09T15:05:08;3.00;;;1.00;;
56670;SDS011;42545;50.054;8.306;2022-09-09T15:07:35;2.50;;;0.90;;
56670;SDS011;42545;50.054;8.306;2022-09-09T15:10:03;2.00;;;1.00;;
56670;SDS011;42545;50.054;8.306;2022-09-09T15:12:31;2.00;;;0.93;;
56670;SDS011;42545;50.054;8.306;2022-09-09T15:15:00;2.33;;;0.90;;
56670;SDS011;42545;50.054;8.306;2022-09-09T15:17:28;3.13;;;1.00;;
56670;SDS011;42545;50.054;8.306;2022-09-09T15:19:55;4.95;;;1.05;;
56670;SDS011;42545;50.054;8.306;2022-09-09T15:22:22;2.53;;;1.08;;
56670;SDS011;42545;50.054;8.306;2022-09-09T15:24:49;4.10;;;1.15;;
56670;SDS011;42545;50.054;8.306;2022-09-09T15:27:16;3.15;;;1.10;;
56670;SDS011;42545;50.054;8.306;2022-09-09T15:29:43;1.65;;;0.82;;
56670;SDS011;42545;50.054;8.306;2022-09-09T15:32:10;3.83;;;1.20;;
56670;SDS011;42545;50.054;8.306;2022-09-09T15:34:39;3.60;;;0.90;;
56670;SDS011;42545;50.054;8.306;2022-09-09T15:37:05;4.35;;;0.90;;